createdAt,value
2023-04-08T00:01:59.426Z,6.02
2023-04-08T00:04:27.322Z,6.20
2023-04-08T00:06:56.234Z,6.19
2023-04-08T00:09:24.029Z,6.09
2023-04-08T00:11:52.978Z,6.12
2023-04-08T00:14:20.629Z,6.03
2023-04-08T00:16:48.575Z,6.13
2023-04-08T00:19:16.255Z,6.00
2023-04-08T00:21:44.260Z,6.03
2023-04-08T00:24:11.964Z,6.14
2023-04-08T00:26:39.904Z,6.12
2023-04-08T00:29:07.561Z,6.04
2023-04-08T00:31:35.700Z,6.07
2023-04-08T00:34:03.406Z,6.02
2023-04-08T00:36:31.308Z,5.76
2023-04-08T00:38:58.987Z,5.72
2023-04-08T00:41:27.048Z,5.81
2023-04-08T00:43:54.951Z,5.59
2023-04-08T00:46:23.113Z,5.49
2023-04-08T00:48:51.386Z,5.31
2023-04-08T00:51:20.493Z,5.18
2023-04-08T00:53:48.139Z,5.05
2023-04-08T00:56:16.334Z,4.97
2023-04-08T00:58:44.010Z,4.77
2023-04-08T01:01:22.676Z,4.57
2023-04-08T01:04:15.451Z,4.34
2023-04-08T01:07:17.393Z,4.19
2023-04-08T01:09:59.066Z,4.10
2023-04-08T01:12:31.837Z,3.94
2023-04-08T01:15:06.961Z,3.88
2023-04-08T01:17:37.267Z,3.73
2023-04-08T01:20:07.433Z,3.57
2023-04-08T01:22:51.003Z,3.38
2023-04-08T01:25:26.311Z,3.15
2023-04-08T01:27:57.627Z,3.12
2023-04-08T01:30:27.281Z,2.97
2023-04-08T01:32:56.849Z,2.88
2023-04-08T01:35:25.099Z,2.75
2023-04-08T01:37:55.715Z,2.73
2023-04-08T01:40:23.930Z,3.22
2023-04-08T01:42:56.102Z,3.17
2023-04-08T01:45:25.648Z,2.88
2023-04-08T01:47:54.507Z,2.63
2023-04-08T01:50:22.432Z,2.61
2023-04-08T01:52:53.760Z,2.66
2023-04-08T01:55:22.200Z,2.85
2023-04-08T01:57:52.372Z,2.86
2023-04-08T02:00:28.193Z,2.57
2023-04-08T02:02:57.801Z,2.29
2023-04-08T02:05:25.613Z,2.15
2023-04-08T02:07:53.633Z,2.04
2023-04-08T02:10:21.414Z,1.84
2023-04-08T02:12:49.925Z,1.69
2023-04-08T02:15:17.902Z,1.54
2023-04-08T02:17:52.700Z,1.46
2023-04-08T02:20:31.429Z,1.36
2023-04-08T02:23:21.526Z,1.27
2023-04-08T02:25:50.558Z,1.14
2023-04-08T02:28:19.854Z,1.02
2023-04-08T02:30:53.404Z,0.96
2023-04-08T02:33:22.222Z,1.09
2023-04-08T02:35:56.086Z,1.20
2023-04-08T02:38:29.792Z,1.28
2023-04-08T02:40:58.681Z,1.51
2023-04-08T02:43:31.843Z,1.37
2023-04-08T02:46:03.728Z,1.33
2023-04-08T02:48:32.439Z,1.42
2023-04-08T02:51:00.081Z,1.60
2023-04-08T02:53:28.082Z,1.66
2023-04-08T02:55:55.814Z,1.70
2023-04-08T02:58:23.743Z,1.58
2023-04-08T03:00:51.559Z,1.30
2023-04-08T03:03:19.602Z,1.05
2023-04-08T03:05:47.307Z,0.81
2023-04-08T03:08:15.444Z,0.64
2023-04-08T03:10:43.233Z,0.53
2023-04-08T03:13:11.219Z,0.47
2023-04-08T03:15:38.904Z,0.45
2023-04-08T03:18:07.022Z,0.43
2023-04-08T03:20:34.768Z,0.41
2023-04-08T03:23:02.855Z,0.38
2023-04-08T03:25:31.682Z,0.30
2023-04-08T03:27:59.751Z,0.25
2023-04-08T03:30:27.480Z,0.27
2023-04-08T03:32:55.664Z,0.11
2023-04-08T03:35:23.405Z,0.11
2023-04-08T03:37:51.361Z,0.00
2023-04-08T03:40:19.169Z,0.02
2023-04-08T03:42:47.241Z,-0.05
2023-04-08T03:45:14.866Z,-0.11
2023-04-08T03:47:42.813Z,-0.17
2023-04-08T03:50:10.973Z,-0.08
2023-04-08T03:52:38.869Z,-0.13
2023-04-08T03:55:06.694Z,-0.08
2023-04-08T03:57:34.692Z,0.09
2023-04-08T04:00:02.405Z,0.16
2023-04-08T04:02:40.402Z,0.27
2023-04-08T04:05:08.865Z,0.47
2023-04-08T04:07:36.812Z,0.39
2023-04-08T04:10:04.806Z,0.25
2023-04-08T04:12:32.795Z,0.41
2023-04-08T04:15:00.654Z,0.66
2023-04-08T04:17:28.594Z,0.78
2023-04-08T04:19:56.427Z,0.92
2023-04-08T04:22:24.351Z,1.05
2023-04-08T04:24:52.049Z,1.10
2023-04-08T04:27:20.020Z,1.14
2023-04-08T04:29:47.660Z,1.09
2023-04-08T04:32:16.126Z,1.25
2023-04-08T04:34:44.770Z,1.32
2023-04-08T04:37:12.775Z,1.33
2023-04-08T04:39:40.556Z,1.38
2023-04-08T04:42:08.444Z,1.63
2023-04-08T04:44:36.459Z,1.79
2023-04-08T04:47:04.434Z,1.88
2023-04-08T04:49:32.204Z,2.00
2023-04-08T04:52:00.134Z,3.33
2023-04-08T04:54:27.892Z,5.16
2023-04-08T04:56:55.770Z,4.26
2023-04-08T04:59:23.387Z,5.03
2023-04-08T05:01:51.465Z,6.50
2023-04-08T05:04:19.206Z,7.25
2023-04-08T05:06:47.172Z,7.56
2023-04-08T05:09:14.787Z,8.38
2023-04-08T05:11:42.737Z,9.68
2023-04-08T05:14:10.524Z,11.00
2023-04-08T05:16:39.251Z,9.07
2023-04-08T05:19:06.964Z,8.12
2023-04-08T05:21:34.973Z,8.07
2023-04-08T05:24:02.646Z,9.81
2023-04-08T05:26:31.046Z,9.50
2023-04-08T05:28:58.732Z,8.20
2023-04-08T05:31:27.198Z,8.12
2023-04-08T05:33:54.877Z,10.95
2023-04-08T05:36:22.773Z,12.49
2023-04-08T05:38:50.982Z,10.61
2023-04-08T05:41:18.998Z,11.10
2023-04-08T05:43:46.728Z,12.74
2023-04-08T05:46:14.823Z,12.25
2023-04-08T05:48:42.504Z,12.53
2023-04-08T05:51:17.919Z,12.86
2023-04-08T05:53:48.494Z,12.76
2023-04-08T05:56:16.403Z,13.18
2023-04-08T05:58:44.094Z,13.40
2023-04-08T06:01:11.946Z,13.50
2023-04-08T06:03:39.811Z,14.07
2023-04-08T06:06:14.338Z,14.73
2023-04-08T06:08:42.128Z,16.02
2023-04-08T06:11:10.163Z,17.00
2023-04-08T06:13:38.445Z,16.44
2023-04-08T06:16:21.131Z,16.83
2023-04-08T06:18:49.474Z,16.73
2023-04-08T06:21:17.757Z,17.18
2023-04-08T06:23:45.409Z,17.21
2023-04-08T06:26:13.438Z,17.34
2023-04-08T06:28:41.207Z,16.99
2023-04-08T06:31:09.308Z,16.33
2023-04-08T06:33:36.938Z,16.15
2023-04-08T06:36:07.661Z,15.97
2023-04-08T06:38:35.794Z,14.71
2023-04-08T06:41:04.690Z,14.60
2023-04-08T06:43:33.081Z,15.02
2023-04-08T06:46:01.287Z,14.90
2023-04-08T06:48:30.633Z,15.57
2023-04-08T06:51:00.536Z,15.28
2023-04-08T06:53:33.480Z,15.82
2023-04-08T06:56:02.011Z,15.60
2023-04-08T06:58:30.086Z,15.13
2023-04-08T07:00:59.260Z,15.55
2023-04-08T07:03:27.083Z,15.64
2023-04-08T07:05:55.259Z,16.09
2023-04-08T07:08:22.950Z,16.20
2023-04-08T07:10:53.094Z,16.79
2023-04-08T07:13:20.906Z,17.53
2023-04-08T07:15:48.835Z,17.66
2023-04-08T07:18:16.740Z,18.17
2023-04-08T07:20:44.817Z,18.50
2023-04-08T07:23:12.494Z,18.86
2023-04-08T07:25:40.437Z,19.30
2023-04-08T07:28:08.162Z,19.24
2023-04-08T07:30:36.762Z,19.47
2023-04-08T07:33:04.577Z,19.68
2023-04-08T07:35:33.694Z,18.91
2023-04-08T07:38:01.482Z,19.23
2023-04-08T07:40:30.183Z,20.16
2023-04-08T07:42:57.901Z,21.02
2023-04-08T07:45:25.967Z,22.39
2023-04-08T07:47:53.790Z,23.70
2023-04-08T07:50:21.731Z,24.44
2023-04-08T07:52:49.501Z,25.76
2023-04-08T07:55:17.505Z,26.36
2023-04-08T07:57:46.194Z,26.77
2023-04-08T08:00:20.905Z,26.54
2023-04-08T08:02:49.095Z,26.93
2023-04-08T08:05:17.262Z,27.07
2023-04-08T08:07:45.313Z,27.37
2023-04-08T08:10:13.273Z,27.95
2023-04-08T08:12:41.023Z,27.10
2023-04-08T08:15:09.650Z,25.65
2023-04-08T08:17:37.295Z,25.97
2023-04-08T08:20:05.753Z,26.24
2023-04-08T08:22:33.613Z,26.05
2023-04-08T08:25:01.583Z,26.04
2023-04-08T08:27:29.360Z,26.25
2023-04-08T08:29:57.698Z,26.99
2023-04-08T08:32:26.029Z,26.95
2023-04-08T08:34:53.923Z,27.68
2023-04-08T08:37:22.005Z,28.27
2023-04-08T08:39:50.009Z,27.81
2023-04-08T08:42:24.910Z,28.27
2023-04-08T08:44:54.641Z,27.91
2023-04-08T08:47:22.517Z,28.01
2023-04-08T08:49:51.017Z,27.94
2023-04-08T08:52:18.870Z,27.87
2023-04-08T08:54:47.189Z,27.59
2023-04-08T08:57:21.178Z,27.67
2023-04-08T08:59:49.441Z,27.78
2023-04-08T09:02:34.109Z,27.09
2023-04-08T09:05:04.937Z,26.62
2023-04-08T09:07:37.061Z,26.41
2023-04-08T09:10:05.515Z,26.93
2023-04-08T09:12:33.349Z,26.10
2023-04-08T09:15:11.211Z,26.80
2023-04-08T09:17:41.554Z,27.58
2023-04-08T09:20:12.172Z,27.79
2023-04-08T09:22:59.723Z,27.18
2023-04-08T09:25:32.838Z,26.03
2023-04-08T09:28:02.185Z,26.61
2023-04-08T09:30:32.673Z,27.21
2023-04-08T09:33:01.463Z,25.89
2023-04-08T09:35:29.881Z,25.89
2023-04-08T09:37:57.762Z,25.91
2023-04-08T09:40:27.451Z,25.63
2023-04-08T09:42:57.243Z,25.99
2023-04-08T09:45:28.175Z,25.74
2023-04-08T09:48:17.537Z,25.23
2023-04-08T09:50:50.140Z,25.62
2023-04-08T09:53:26.743Z,24.54
2023-04-08T09:55:57.482Z,24.06
2023-04-08T09:58:39.760Z,24.35
2023-04-08T10:01:10.108Z,24.71
2023-04-08T10:03:46.155Z,24.43
2023-04-08T10:06:14.769Z,24.14
2023-04-08T10:08:43.791Z,23.63
2023-04-08T10:11:12.158Z,23.59
2023-04-08T10:13:39.898Z,23.64
2023-04-08T10:16:19.378Z,23.46
2023-04-08T10:18:47.713Z,22.58
2023-04-08T10:21:38.812Z,21.85
2023-04-08T10:24:11.052Z,20.08
2023-04-08T10:26:43.821Z,18.34
2023-04-08T10:29:26.673Z,16.41
2023-04-08T10:31:55.045Z,15.81
2023-04-08T10:34:27.348Z,15.45
2023-04-08T10:36:56.991Z,15.26
2023-04-08T10:39:27.247Z,15.00
2023-04-08T10:41:56.398Z,14.78
2023-04-08T10:44:26.767Z,14.60
2023-04-08T10:46:55.673Z,14.71
2023-04-08T10:49:32.172Z,14.39
2023-04-08T10:52:00.877Z,14.19
2023-04-08T10:54:28.675Z,14.04
2023-04-08T10:56:56.752Z,14.08
2023-04-08T10:59:34.967Z,14.15
2023-04-08T11:02:03.486Z,14.29
2023-04-08T11:04:31.637Z,14.38
2023-04-08T11:06:59.801Z,14.52
2023-04-08T11:09:27.525Z,14.47
2023-04-08T11:11:56.710Z,14.65
2023-04-08T11:14:25.595Z,14.78
2023-04-08T11:16:53.777Z,14.61
2023-04-08T11:19:22.909Z,14.36
2023-04-08T11:21:52.205Z,14.48
2023-04-08T11:24:22.405Z,14.71
2023-04-08T11:26:50.570Z,14.69
2023-04-08T11:29:18.404Z,14.75
2023-04-08T11:31:48.425Z,14.45
2023-04-08T11:34:23.653Z,14.57
2023-04-08T11:36:52.731Z,14.73
2023-04-08T11:39:23.977Z,14.90
2023-04-08T11:41:52.002Z,14.70
2023-04-08T11:44:19.734Z,14.49
2023-04-08T11:46:57.388Z,14.70
2023-04-08T11:49:25.257Z,14.78
2023-04-08T11:52:00.312Z,14.94
2023-04-08T11:54:29.678Z,14.99
2023-04-08T11:56:58.425Z,14.92
2023-04-08T11:59:28.964Z,15.27
2023-04-08T12:01:58.170Z,15.44
2023-04-08T12:04:26.298Z,15.75
2023-04-08T12:06:55.368Z,15.96
2023-04-08T12:09:24.630Z,15.86
2023-04-08T12:11:52.517Z,15.64
2023-04-08T12:14:22.066Z,15.45
2023-04-08T12:16:50.102Z,15.44
2023-04-08T12:19:17.784Z,15.61
2023-04-08T12:21:45.694Z,15.97
2023-04-08T12:24:13.398Z,16.43
2023-04-08T12:26:41.485Z,16.62
2023-04-08T12:29:11.758Z,16.67
2023-04-08T12:31:39.794Z,16.27
2023-04-08T12:34:07.572Z,16.32
2023-04-08T12:36:36.146Z,16.28
2023-04-08T12:39:03.877Z,16.23
2023-04-08T12:41:31.823Z,16.09
2023-04-08T12:43:59.587Z,16.00
2023-04-08T12:46:28.488Z,16.20
2023-04-08T12:49:03.472Z,16.40
2023-04-08T12:51:32.398Z,16.59
2023-04-08T12:54:01.321Z,16.67
2023-04-08T12:56:29.828Z,16.85
2023-04-08T12:58:57.761Z,16.67
2023-04-08T13:01:25.887Z,17.02
2023-04-08T13:03:54.291Z,17.20
2023-04-08T13:06:22.569Z,17.49
2023-04-08T13:08:50.391Z,17.43
2023-04-08T13:11:18.427Z,17.63
2023-04-08T13:13:46.938Z,17.66
2023-04-08T13:16:15.618Z,17.70
2023-04-08T13:18:43.523Z,17.28
2023-04-08T13:21:11.423Z,17.16
2023-04-08T13:23:39.243Z,17.11
2023-04-08T13:26:07.256Z,17.02
2023-04-08T13:28:53.849Z,16.80
2023-04-08T13:31:23.048Z,16.43
2023-04-08T13:33:50.746Z,15.83
2023-04-08T13:36:19.933Z,15.91
2023-04-08T13:38:47.793Z,15.38
2023-04-08T13:41:15.572Z,15.63
2023-04-08T13:43:43.478Z,15.71
2023-04-08T13:46:11.423Z,15.57
2023-04-08T13:48:39.562Z,15.42
2023-04-08T13:51:07.260Z,15.32
2023-04-08T13:53:35.392Z,15.31
2023-04-08T13:56:03.773Z,15.22
2023-04-08T13:58:31.753Z,15.11
2023-04-08T14:00:59.558Z,15.24
2023-04-08T14:03:28.264Z,15.02
2023-04-08T14:05:55.925Z,15.07
2023-04-08T14:08:26.629Z,14.92
2023-04-08T14:10:57.954Z,15.11
2023-04-08T14:13:25.875Z,14.97
2023-04-08T14:15:55.086Z,15.03
2023-04-08T14:18:23.094Z,14.92
2023-04-08T14:20:50.770Z,14.66
2023-04-08T14:23:18.680Z,14.57
2023-04-08T14:25:46.369Z,14.54
2023-04-08T14:28:14.349Z,14.53
2023-04-08T14:30:42.841Z,14.66
2023-04-08T14:33:11.168Z,14.77
2023-04-08T14:35:38.901Z,15.04
2023-04-08T14:38:06.844Z,15.39
2023-04-08T14:40:36.505Z,15.61
2023-04-08T14:43:05.627Z,15.76
2023-04-08T14:45:33.349Z,15.53
2023-04-08T14:48:01.365Z,15.44
2023-04-08T14:50:29.379Z,15.30
2023-04-08T14:52:57.480Z,15.10
2023-04-08T14:55:25.954Z,15.06
2023-04-08T14:57:53.977Z,15.06
2023-04-08T15:00:21.832Z,15.01
2023-04-08T15:02:50.036Z,14.93
2023-04-08T15:05:17.870Z,14.62
2023-04-08T15:07:47.359Z,14.60
2023-04-08T15:10:15.234Z,14.47
2023-04-08T15:12:43.085Z,14.54
2023-04-08T15:15:11.141Z,14.38
2023-04-08T15:17:39.244Z,14.37
2023-04-08T15:20:07.738Z,14.40
2023-04-08T15:22:35.876Z,14.14
2023-04-08T15:25:05.275Z,14.08
2023-04-08T15:27:34.471Z,14.11
2023-04-08T15:30:02.352Z,13.96
2023-04-08T15:32:30.716Z,13.80
2023-04-08T15:34:58.608Z,13.80
2023-04-08T15:37:26.589Z,13.95
2023-04-08T15:39:54.642Z,13.90
2023-04-08T15:42:23.136Z,13.88
2023-04-08T15:44:50.811Z,13.81
2023-04-08T15:47:18.844Z,14.01
2023-04-08T15:49:47.544Z,13.95
2023-04-08T15:52:15.604Z,13.99
2023-04-08T15:54:43.253Z,13.99
2023-04-08T15:57:11.360Z,13.89
2023-04-08T15:59:39.058Z,13.94
2023-04-08T16:02:07.449Z,13.92
2023-04-08T16:04:35.442Z,13.91
2023-04-08T16:07:04.146Z,13.94
2023-04-08T16:09:32.053Z,13.96
2023-04-08T16:12:00.050Z,13.82
2023-04-08T16:14:28.264Z,13.95
2023-04-08T16:16:57.693Z,13.95
2023-04-08T16:19:25.410Z,13.73
2023-04-08T16:21:53.353Z,13.72
2023-04-08T16:24:21.667Z,13.62
2023-04-08T16:26:49.733Z,13.78
2023-04-08T16:29:17.379Z,13.64
2023-04-08T16:31:45.473Z,13.58
2023-04-08T16:34:13.083Z,13.67
2023-04-08T16:36:41.039Z,13.53
2023-04-08T16:39:09.496Z,13.48
2023-04-08T16:41:39.470Z,13.53
2023-04-08T16:44:07.261Z,13.51
2023-04-08T16:46:36.253Z,13.35
2023-04-08T16:49:03.948Z,13.27
2023-04-08T16:51:32.061Z,13.14
2023-04-08T16:53:59.968Z,13.12
2023-04-08T16:56:28.151Z,12.96
2023-04-08T16:58:56.110Z,12.86
2023-04-08T17:01:24.181Z,12.73
2023-04-08T17:03:53.147Z,12.70
2023-04-08T17:06:21.745Z,12.78
2023-04-08T17:08:49.501Z,12.74
2023-04-08T17:11:17.777Z,12.50
2023-04-08T17:13:45.814Z,12.40
2023-04-08T17:16:15.936Z,12.44
2023-04-08T17:18:44.528Z,12.26
2023-04-08T17:21:14.401Z,12.20
2023-04-08T17:23:42.204Z,12.11
2023-04-08T17:26:11.210Z,11.93
2023-04-08T17:28:39.440Z,11.82
2023-04-08T17:31:07.454Z,11.74
2023-04-08T17:33:35.180Z,11.67
2023-04-08T17:36:03.498Z,11.51
2023-04-08T17:38:32.295Z,11.45
2023-04-08T17:41:00.510Z,11.42
2023-04-08T17:43:28.258Z,11.30
2023-04-08T17:46:02.967Z,11.25
2023-04-08T17:48:30.811Z,11.11
2023-04-08T17:51:02.830Z,11.16
2023-04-08T17:53:32.084Z,11.09
2023-04-08T17:56:00.790Z,11.05
2023-04-08T17:58:28.573Z,10.93
2023-04-08T18:00:56.552Z,10.90
2023-04-08T18:03:24.482Z,10.88
2023-04-08T18:05:55.162Z,10.79
2023-04-08T18:08:24.094Z,10.72
2023-04-08T18:10:52.047Z,10.53
2023-04-08T18:13:19.859Z,10.55
2023-04-08T18:15:47.832Z,10.52
2023-04-08T18:18:19.523Z,10.42
2023-04-08T18:20:47.597Z,10.35
2023-04-08T18:23:15.240Z,10.27
2023-04-08T18:25:46.312Z,10.17
2023-04-08T18:28:14.074Z,10.06
2023-04-08T18:30:43.335Z,9.94
2023-04-08T18:33:11.251Z,9.75
2023-04-08T18:35:39.313Z,9.61
2023-04-08T18:38:07.069Z,9.57
2023-04-08T18:40:35.514Z,9.60
2023-04-08T18:43:05.016Z,9.59
2023-04-08T18:45:33.006Z,9.38
2023-04-08T18:48:00.969Z,9.28
2023-04-08T18:50:28.938Z,9.29
2023-04-08T18:52:56.700Z,9.31
2023-04-08T18:55:24.839Z,9.33
2023-04-08T18:57:52.557Z,9.33
2023-04-08T19:00:20.533Z,9.33
2023-04-08T19:02:48.294Z,9.23
2023-04-08T19:05:16.957Z,9.16
2023-04-08T19:07:44.571Z,9.21
2023-04-08T19:10:12.474Z,9.19
2023-04-08T19:12:40.246Z,9.04
2023-04-08T19:15:08.472Z,9.01
2023-04-08T19:17:36.116Z,9.13
2023-04-08T19:20:04.255Z,9.07
2023-04-08T19:22:32.066Z,8.93
2023-04-08T19:25:00.361Z,8.88
2023-04-08T19:27:28.015Z,8.82
2023-04-08T19:29:56.345Z,8.82
2023-04-08T19:32:24.096Z,8.78
2023-04-08T19:34:52.362Z,8.74
2023-04-08T19:37:20.096Z,8.88
2023-04-08T19:39:47.961Z,9.07
2023-04-08T19:42:15.572Z,9.10
2023-04-08T19:44:43.507Z,9.09
2023-04-08T19:47:11.299Z,9.14
2023-04-08T19:49:39.402Z,9.19
2023-04-08T19:52:07.552Z,9.18
2023-04-08T19:54:36.463Z,9.18
2023-04-08T19:57:06.389Z,9.23
2023-04-08T19:59:35.118Z,9.21
2023-04-08T20:02:05.804Z,9.21
2023-04-08T20:04:34.105Z,9.38
2023-04-08T20:07:03.793Z,9.41
2023-04-08T20:09:32.691Z,9.27
2023-04-08T20:12:04.667Z,9.28
2023-04-08T20:14:34.293Z,9.22
2023-04-08T20:17:02.252Z,9.13
2023-04-08T20:19:30.539Z,9.00
2023-04-08T20:21:58.267Z,8.97
2023-04-08T20:24:26.367Z,8.80
2023-04-08T20:26:55.100Z,8.80
2023-04-08T20:29:23.207Z,8.99
2023-04-08T20:31:51.903Z,8.94
2023-04-08T20:34:19.926Z,9.12
2023-04-08T20:36:47.585Z,9.11
2023-04-08T20:39:15.534Z,9.18
2023-04-08T20:41:43.161Z,9.13
2023-04-08T20:44:11.130Z,8.90
2023-04-08T20:46:39.120Z,8.84
2023-04-08T20:49:07.699Z,8.77
2023-04-08T20:51:35.726Z,8.84
2023-04-08T20:54:03.873Z,8.97
2023-04-08T20:56:31.569Z,8.83
2023-04-08T20:59:00.405Z,8.75
2023-04-08T21:01:28.671Z,8.83
2023-04-08T21:03:57.224Z,8.76
2023-04-08T21:06:24.911Z,8.73
2023-04-08T21:08:53.544Z,8.87
2023-04-08T21:11:21.755Z,8.93
2023-04-08T21:13:49.819Z,8.86
2023-04-08T21:16:17.761Z,9.03
2023-04-08T21:18:45.955Z,8.91
2023-04-08T21:21:13.917Z,8.70
2023-04-08T21:23:41.826Z,8.57
2023-04-08T21:26:15.548Z,8.53
2023-04-08T21:28:44.118Z,8.51
2023-04-08T21:31:12.944Z,8.48
2023-04-08T21:33:41.116Z,8.51
2023-04-08T21:36:09.051Z,8.44
2023-04-08T21:38:36.892Z,8.39
2023-04-08T21:41:04.713Z,8.47
2023-04-08T21:43:32.749Z,8.42
2023-04-08T21:46:00.418Z,8.34
2023-04-08T21:48:28.519Z,8.37
2023-04-08T21:50:56.255Z,8.59
2023-04-08T21:53:24.187Z,8.73
2023-04-08T21:55:52.176Z,8.57
2023-04-08T21:58:20.139Z,8.83
2023-04-08T22:00:49.236Z,8.62
2023-04-08T22:03:17.446Z,8.63
2023-04-08T22:05:45.756Z,8.54
2023-04-08T22:08:13.640Z,8.53
2023-04-08T22:10:41.287Z,8.45
2023-04-08T22:13:10.681Z,8.45
2023-04-08T22:15:38.383Z,8.41
2023-04-08T22:18:06.418Z,8.39
2023-04-08T22:20:34.082Z,8.41
2023-04-08T22:23:02.013Z,8.54
2023-04-08T22:25:29.728Z,8.56
2023-04-08T22:27:57.620Z,8.62
2023-04-08T22:30:25.374Z,8.61
2023-04-08T22:32:53.301Z,8.54
2023-04-08T22:35:21.473Z,8.62
2023-04-08T22:37:49.412Z,8.56
2023-04-08T22:40:17.080Z,8.51
2023-04-08T22:42:45.096Z,8.54
2023-04-08T22:45:12.862Z,8.63
2023-04-08T22:47:40.856Z,8.54
2023-04-08T22:50:08.927Z,8.53
2023-04-08T22:52:36.915Z,8.48
2023-04-08T22:55:05.550Z,8.41
2023-04-08T22:57:34.673Z,8.42
2023-04-08T23:00:04.391Z,8.45
2023-04-08T23:02:32.485Z,8.46
2023-04-08T23:05:00.398Z,8.43
2023-04-08T23:07:28.296Z,8.48
2023-04-08T23:09:56.016Z,8.42
2023-04-08T23:12:23.951Z,8.43
2023-04-08T23:14:51.729Z,8.40
2023-04-08T23:17:19.722Z,8.42
2023-04-08T23:19:47.499Z,8.44
2023-04-08T23:22:15.598Z,8.55
2023-04-08T23:24:43.500Z,8.44
2023-04-08T23:27:11.443Z,8.45
2023-04-08T23:29:39.163Z,8.50
2023-04-08T23:32:07.052Z,8.44
2023-04-08T23:34:38.146Z,8.47
2023-04-08T23:37:06.116Z,8.45
2023-04-08T23:39:33.737Z,8.46
2023-04-08T23:42:01.795Z,8.43
2023-04-08T23:44:29.573Z,8.43
2023-04-08T23:46:57.498Z,8.50
2023-04-08T23:49:25.424Z,8.44
2023-04-08T23:51:53.674Z,8.42
2023-04-08T23:54:22.580Z,8.36
2023-04-08T23:56:50.621Z,8.39
2023-04-08T23:59:18.374Z,8.38
